sensor_id;sensor_type;location;lat;lon;timestamp;P1;durP1;ratioP1;P2;durP2;ratioP2
9260;SDS011;4667;42.726;23.252;2023-02-10T06:28:13;13.80;;;10.37;;
9260;SDS011;4667;42.726;23.252;2023-02-10T07:27:41;20.13;;;10.40;;
9260;SDS011;4667;42.726;23.252;2023-02-10T07:30:11;35.57;;;15.90;;
9260;SDS011;4667;42.726;23.252;2023-02-10T07:32:40;28.20;;;15.53;;
9260;SDS011;4667;42.726;23.252;2023-02-10T07:35:16;28.33;;;17.33;;
9260;SDS011;4667;42.726;23.252;2023-02-10T07:38:06;28.63;;;14.67;;
9260;SDS011;4667;42.726;23.252;2023-02-10T07:40:35;26.47;;;13.03;;
9260;SDS011;4667;42.726;23.252;2023-02-10T07:43:02;17.40;;;14.67;;
9260;SDS011;4667;42.726;23.252;2023-02-10T07:45:29;18.50;;;11.80;;
9260;SDS011;4667;42.726;23.252;2023-02-10T07:47:56;23.67;;;12.30;;
9260;SDS011;4667;42.726;23.252;2023-02-10T07:50:24;21.57;;;12.07;;
9260;SDS011;4667;42.726;23.252;2023-02-10T07:52:51;22.37;;;12.33;;
9260;SDS011;4667;42.726;23.252;2023-02-10T07:55:18;22.40;;;12.57;;
9260;SDS011;4667;42.726;23.252;2023-02-10T07:57:46;18.40;;;9.97;;
9260;SDS011;4667;42.726;23.252;2023-02-10T08:00:13;17.67;;;10.07;;
9260;SDS011;4667;42.726;23.252;2023-02-10T08:02:40;21.70;;;10.80;;
9260;SDS011;4667;42.726;23.252;2023-02-10T08:05:08;23.07;;;11.00;;
9260;SDS011;4667;42.726;23.252;2023-02-10T08:07:35;19.10;;;10.43;;
9260;SDS011;4667;42.726;23.252;2023-02-10T08:10:03;12.63;;;8.53;;
9260;SDS011;4667;42.726;23.252;2023-02-10T08:12:31;11.50;;;7.93;;
9260;SDS011;4667;42.726;23.252;2023-02-10T08:15:00;19.23;;;8.13;;
9260;SDS011;4667;42.726;23.252;2023-02-10T08:17:27;7.40;;;6.50;;
9260;SDS011;4667;42.726;23.252;2023-02-10T08:19:56;10.70;;;7.53;;
9260;SDS011;4667;42.726;23.252;2023-02-10T08:22:23;11.43;;;7.20;;
9260;SDS011;4667;42.726;23.252;2023-02-10T08:24:50;14.37;;;7.17;;
9260;SDS011;4667;42.726;23.252;2023-02-10T08:27:19;13.53;;;7.13;;
9260;SDS011;4667;42.726;23.252;2023-02-10T08:29:46;8.40;;;6.73;;
9260;SDS011;4667;42.726;23.252;2023-02-10T08:32:15;9.00;;;7.90;;
9260;SDS011;4667;42.726;23.252;2023-02-10T08:34:44;9.63;;;7.43;;
9260;SDS011;4667;42.726;23.252;2023-02-10T08:37:14;10.10;;;7.60;;
9260;SDS011;4667;42.726;23.252;2023-02-10T08:39:42;27.40;;;5.97;;
9260;SDS011;4667;42.726;23.252;2023-02-10T08:42:08;8.80;;;6.83;;
9260;SDS011;4667;42.726;23.252;2023-02-10T08:44:38;15.23;;;7.77;;
9260;SDS011;4667;42.726;23.252;2023-02-10T08:47:04;12.10;;;7.70;;
9260;SDS011;4667;42.726;23.252;2023-02-10T08:49:37;13.93;;;6.73;;
9260;SDS011;4667;42.726;23.252;2023-02-10T08:52:04;15.30;;;9.40;;
9260;SDS011;4667;42.726;23.252;2023-02-10T08:54:31;15.03;;;9.83;;
9260;SDS011;4667;42.726;23.252;2023-02-10T08:56:58;10.60;;;8.43;;
9260;SDS011;4667;42.726;23.252;2023-02-10T08:59:26;12.43;;;8.83;;
9260;SDS011;4667;42.726;23.252;2023-02-10T09:01:53;10.13;;;8.17;;
9260;SDS011;4667;42.726;23.252;2023-02-10T09:04:20;13.13;;;9.17;;
9260;SDS011;4667;42.726;23.252;2023-02-10T09:06:49;15.27;;;10.10;;
9260;SDS011;4667;42.726;23.252;2023-02-10T09:09:17;16.77;;;10.00;;
9260;SDS011;4667;42.726;23.252;2023-02-10T09:11:49;13.80;;;9.33;;
9260;SDS011;4667;42.726;23.252;2023-02-10T09:14:16;15.67;;;9.97;;
9260;SDS011;4667;42.726;23.252;2023-02-10T09:16:43;13.70;;;9.30;;
9260;SDS011;4667;42.726;23.252;2023-02-10T09:19:10;13.90;;;9.70;;
9260;SDS011;4667;42.726;23.252;2023-02-10T09:21:37;16.60;;;10.43;;
9260;SDS011;4667;42.726;23.252;2023-02-10T09:24:06;16.10;;;9.60;;
9260;SDS011;4667;42.726;23.252;2023-02-10T09:26:33;12.63;;;9.77;;
9260;SDS011;4667;42.726;23.252;2023-02-10T09:29:00;22.77;;;9.77;;
9260;SDS011;4667;42.726;23.252;2023-02-10T09:31:28;21.03;;;9.93;;
9260;SDS011;4667;42.726;23.252;2023-02-10T09:33:55;28.00;;;11.03;;
9260;SDS011;4667;42.726;23.252;2023-02-10T09:36:21;13.93;;;8.60;;
9260;SDS011;4667;42.726;23.252;2023-02-10T09:38:49;15.67;;;9.60;;
9260;SDS011;4667;42.726;23.252;2023-02-10T09:41:24;13.83;;;9.90;;
9260;SDS011;4667;42.726;23.252;2023-02-10T09:44:05;13.60;;;8.20;;
9260;SDS011;4667;42.726;23.252;2023-02-10T09:46:44;13.80;;;9.67;;
9260;SDS011;4667;42.726;23.252;2023-02-10T09:49:37;15.63;;;10.37;;
9260;SDS011;4667;42.726;23.252;2023-02-10T09:52:22;13.67;;;9.20;;
9260;SDS011;4667;42.726;23.252;2023-02-10T09:54:55;17.37;;;9.77;;
9260;SDS011;4667;42.726;23.252;2023-02-10T09:57:25;17.63;;;10.33;;
9260;SDS011;4667;42.726;23.252;2023-02-10T09:59:59;16.60;;;9.00;;
9260;SDS011;4667;42.726;23.252;2023-02-10T10:02:31;15.63;;;10.33;;
9260;SDS011;4667;42.726;23.252;2023-02-10T10:05:00;19.43;;;10.50;;
9260;SDS011;4667;42.726;23.252;2023-02-10T10:07:40;15.20;;;10.00;;
9260;SDS011;4667;42.726;23.252;2023-02-10T10:10:17;15.60;;;8.97;;
9260;SDS011;4667;42.726;23.252;2023-02-10T10:19:05;19.97;;;10.00;;
9260;SDS011;4667;42.726;23.252;2023-02-10T10:21:40;16.70;;;9.83;;
9260;SDS011;4667;42.726;23.252;2023-02-10T10:24:26;16.00;;;10.70;;
9260;SDS011;4667;42.726;23.252;2023-02-10T10:27:10;15.90;;;9.27;;
9260;SDS011;4667;42.726;23.252;2023-02-10T10:29:48;14.90;;;10.23;;
9260;SDS011;4667;42.726;23.252;2023-02-10T10:32:26;12.57;;;8.67;;
9260;SDS011;4667;42.726;23.252;2023-02-10T10:35:05;15.57;;;8.63;;
9260;SDS011;4667;42.726;23.252;2023-02-10T10:37:41;18.93;;;8.23;;
9260;SDS011;4667;42.726;23.252;2023-02-10T10:40:13;10.67;;;7.13;;
9260;SDS011;4667;42.726;23.252;2023-02-10T10:42:44;14.07;;;9.03;;
9260;SDS011;4667;42.726;23.252;2023-02-10T10:45:14;11.80;;;8.80;;
9260;SDS011;4667;42.726;23.252;2023-02-10T10:47:48;13.37;;;8.67;;
9260;SDS011;4667;42.726;23.252;2023-02-10T10:50:20;13.90;;;8.80;;
9260;SDS011;4667;42.726;23.252;2023-02-10T10:52:52;17.33;;;7.70;;
9260;SDS011;4667;42.726;23.252;2023-02-10T10:55:22;13.07;;;6.63;;
9260;SDS011;4667;42.726;23.252;2023-02-10T10:57:53;15.87;;;8.87;;
9260;SDS011;4667;42.726;23.252;2023-02-10T11:00:23;13.40;;;7.50;;
9260;SDS011;4667;42.726;23.252;2023-02-10T11:02:56;13.20;;;7.73;;
9260;SDS011;4667;42.726;23.252;2023-02-10T11:05:26;13.37;;;7.60;;
9260;SDS011;4667;42.726;23.252;2023-02-10T11:07:56;19.63;;;7.53;;
9260;SDS011;4667;42.726;23.252;2023-02-10T11:10:25;18.00;;;9.33;;
9260;SDS011;4667;42.726;23.252;2023-02-10T11:12:54;10.07;;;7.37;;
9260;SDS011;4667;42.726;23.252;2023-02-10T11:15:37;14.67;;;7.77;;
9260;SDS011;4667;42.726;23.252;2023-02-10T11:18:12;11.70;;;7.70;;
9260;SDS011;4667;42.726;23.252;2023-02-10T11:20:51;14.57;;;8.70;;
9260;SDS011;4667;42.726;23.252;2023-02-10T11:23:20;12.27;;;8.17;;
9260;SDS011;4667;42.726;23.252;2023-02-10T11:25:54;19.90;;;7.93;;
9260;SDS011;4667;42.726;23.252;2023-02-10T11:28:24;15.23;;;8.13;;
9260;SDS011;4667;42.726;23.252;2023-02-10T11:30:54;17.87;;;9.00;;
9260;SDS011;4667;42.726;23.252;2023-02-10T11:33:26;13.03;;;8.40;;
9260;SDS011;4667;42.726;23.252;2023-02-10T11:35:56;14.17;;;7.00;;
9260;SDS011;4667;42.726;23.252;2023-02-10T11:38:26;13.87;;;7.73;;
9260;SDS011;4667;42.726;23.252;2023-02-10T11:40:54;16.27;;;8.47;;
9260;SDS011;4667;42.726;23.252;2023-02-10T11:43:23;12.43;;;7.43;;
9260;SDS011;4667;42.726;23.252;2023-02-10T11:45:57;8.97;;;6.40;;
9260;SDS011;4667;42.726;23.252;2023-02-10T11:48:28;13.87;;;7.40;;
9260;SDS011;4667;42.726;23.252;2023-02-10T11:51:03;13.07;;;8.10;;
9260;SDS011;4667;42.726;23.252;2023-02-10T11:53:34;10.70;;;6.93;;
9260;SDS011;4667;42.726;23.252;2023-02-10T11:56:05;14.37;;;7.53;;
9260;SDS011;4667;42.726;23.252;2023-02-10T11:58:42;15.10;;;8.63;;
9260;SDS011;4667;42.726;23.252;2023-02-10T12:01:28;12.80;;;6.60;;
9260;SDS011;4667;42.726;23.252;2023-02-10T12:04:10;9.50;;;5.63;;
9260;SDS011;4667;42.726;23.252;2023-02-10T12:06:48;14.57;;;6.80;;
9260;SDS011;4667;42.726;23.252;2023-02-10T12:09:26;10.63;;;7.40;;
9260;SDS011;4667;42.726;23.252;2023-02-10T12:11:57;12.83;;;7.90;;
9260;SDS011;4667;42.726;23.252;2023-02-10T12:14:32;13.87;;;6.77;;
9260;SDS011;4667;42.726;23.252;2023-02-10T12:17:14;12.93;;;8.00;;
9260;SDS011;4667;42.726;23.252;2023-02-10T12:19:54;12.83;;;6.43;;
9260;SDS011;4667;42.726;23.252;2023-02-10T12:22:35;10.00;;;6.47;;
9260;SDS011;4667;42.726;23.252;2023-02-10T12:25:16;8.00;;;5.67;;
9260;SDS011;4667;42.726;23.252;2023-02-10T12:27:51;9.17;;;5.67;;
9260;SDS011;4667;42.726;23.252;2023-02-10T12:30:31;9.50;;;5.67;;
9260;SDS011;4667;42.726;23.252;2023-02-10T12:33:10;11.57;;;5.97;;
9260;SDS011;4667;42.726;23.252;2023-02-10T12:35:55;10.93;;;6.53;;
9260;SDS011;4667;42.726;23.252;2023-02-10T12:38:35;7.83;;;5.43;;
9260;SDS011;4667;42.726;23.252;2023-02-10T12:41:13;11.40;;;5.37;;
9260;SDS011;4667;42.726;23.252;2023-02-10T12:43:56;7.77;;;5.03;;
9260;SDS011;4667;42.726;23.252;2023-02-10T12:46:30;11.23;;;5.57;;
9260;SDS011;4667;42.726;23.252;2023-02-10T12:49:14;8.73;;;5.00;;
9260;SDS011;4667;42.726;23.252;2023-02-10T12:51:57;7.57;;;4.57;;
9260;SDS011;4667;42.726;23.252;2023-02-10T12:54:33;9.67;;;5.17;;
9260;SDS011;4667;42.726;23.252;2023-02-10T12:57:07;10.33;;;5.07;;
9260;SDS011;4667;42.726;23.252;2023-02-10T12:59:38;6.73;;;4.83;;
9260;SDS011;4667;42.726;23.252;2023-02-10T13:02:14;9.93;;;4.97;;
9260;SDS011;4667;42.726;23.252;2023-02-10T13:04:46;9.90;;;5.40;;
9260;SDS011;4667;42.726;23.252;2023-02-10T13:07:19;8.80;;;5.20;;
9260;SDS011;4667;42.726;23.252;2023-02-10T13:09:55;10.35;;;5.60;;
9260;SDS011;4667;42.726;23.252;2023-02-10T13:12:29;6.43;;;4.97;;
9260;SDS011;4667;42.726;23.252;2023-02-10T13:15:02;7.03;;;4.73;;
9260;SDS011;4667;42.726;23.252;2023-02-10T13:17:34;8.03;;;5.23;;
9260;SDS011;4667;42.726;23.252;2023-02-10T13:20:07;8.80;;;4.97;;
9260;SDS011;4667;42.726;23.252;2023-02-10T13:22:51;10.00;;;5.17;;
9260;SDS011;4667;42.726;23.252;2023-02-10T13:25:24;9.33;;;5.73;;
9260;SDS011;4667;42.726;23.252;2023-02-10T13:27:58;8.10;;;5.50;;
9260;SDS011;4667;42.726;23.252;2023-02-10T13:30:47;10.13;;;4.40;;
9260;SDS011;4667;42.726;23.252;2023-02-10T13:33:30;5.40;;;3.90;;
9260;SDS011;4667;42.726;23.252;2023-02-10T13:36:06;6.23;;;3.63;;
9260;SDS011;4667;42.726;23.252;2023-02-10T13:38:40;7.03;;;4.20;;
9260;SDS011;4667;42.726;23.252;2023-02-10T13:41:21;7.17;;;4.40;;
9260;SDS011;4667;42.726;23.252;2023-02-10T13:44:16;5.10;;;3.80;;
9260;SDS011;4667;42.726;23.252;2023-02-10T13:46:52;6.07;;;4.33;;
9260;SDS011;4667;42.726;23.252;2023-02-10T13:49:22;5.60;;;4.13;;
9260;SDS011;4667;42.726;23.252;2023-02-10T13:51:50;7.33;;;4.17;;
9260;SDS011;4667;42.726;23.252;2023-02-10T13:54:27;9.80;;;4.87;;
9260;SDS011;4667;42.726;23.252;2023-02-10T13:56:56;5.30;;;3.60;;
9260;SDS011;4667;42.726;23.252;2023-02-10T13:59:25;8.50;;;4.57;;
9260;SDS011;4667;42.726;23.252;2023-02-10T14:02:08;4.73;;;3.57;;
9260;SDS011;4667;42.726;23.252;2023-02-10T14:04:55;7.35;;;4.18;;
9260;SDS011;4667;42.726;23.252;2023-02-10T14:07:33;6.00;;;4.10;;
9260;SDS011;4667;42.726;23.252;2023-02-10T14:10:25;7.37;;;3.57;;
9260;SDS011;4667;42.726;23.252;2023-02-10T14:12:56;4.63;;;3.60;;
9260;SDS011;4667;42.726;23.252;2023-02-10T14:15:26;7.90;;;4.70;;
9260;SDS011;4667;42.726;23.252;2023-02-10T14:18:04;6.30;;;3.60;;
9260;SDS011;4667;42.726;23.252;2023-02-10T14:20:47;5.00;;;2.97;;
9260;SDS011;4667;42.726;23.252;2023-02-10T14:23:38;7.60;;;3.23;;
9260;SDS011;4667;42.726;23.252;2023-02-10T14:26:25;4.73;;;3.50;;
9260;SDS011;4667;42.726;23.252;2023-02-10T14:28:58;3.43;;;2.77;;
9260;SDS011;4667;42.726;23.252;2023-02-10T14:31:26;6.30;;;3.70;;
9260;SDS011;4667;42.726;23.252;2023-02-10T14:33:55;7.90;;;3.87;;
9260;SDS011;4667;42.726;23.252;2023-02-10T14:36:23;5.40;;;4.20;;
9260;SDS011;4667;42.726;23.252;2023-02-10T14:38:50;5.73;;;3.50;;
9260;SDS011;4667;42.726;23.252;2023-02-10T14:41:20;5.23;;;4.03;;
9260;SDS011;4667;42.726;23.252;2023-02-10T14:43:49;7.07;;;4.17;;
9260;SDS011;4667;42.726;23.252;2023-02-10T14:46:19;8.13;;;3.97;;
9260;SDS011;4667;42.726;23.252;2023-02-10T14:48:48;3.57;;;3.13;;
9260;SDS011;4667;42.726;23.252;2023-02-10T14:51:19;5.87;;;3.80;;
9260;SDS011;4667;42.726;23.252;2023-02-10T14:53:47;7.13;;;4.20;;
9260;SDS011;4667;42.726;23.252;2023-02-10T14:56:28;4.97;;;3.30;;
9260;SDS011;4667;42.726;23.252;2023-02-10T14:58:56;3.80;;;3.00;;
9260;SDS011;4667;42.726;23.252;2023-02-10T15:01:24;5.60;;;4.30;;
9260;SDS011;4667;42.726;23.252;2023-02-10T15:03:56;6.10;;;4.03;;
9260;SDS011;4667;42.726;23.252;2023-02-10T15:06:23;5.03;;;3.60;;
9260;SDS011;4667;42.726;23.252;2023-02-10T15:08:54;6.00;;;3.10;;
9260;SDS011;4667;42.726;23.252;2023-02-10T15:11:26;4.87;;;3.37;;
9260;SDS011;4667;42.726;23.252;2023-02-10T15:14:16;4.90;;;3.73;;
9260;SDS011;4667;42.726;23.252;2023-02-10T15:16:46;3.77;;;2.70;;
9260;SDS011;4667;42.726;23.252;2023-02-10T15:19:16;5.63;;;3.67;;
9260;SDS011;4667;42.726;23.252;2023-02-10T15:21:44;3.83;;;3.43;;
9260;SDS011;4667;42.726;23.252;2023-02-10T15:24:22;6.30;;;4.27;;
9260;SDS011;4667;42.726;23.252;2023-02-10T15:26:54;5.23;;;3.80;;
9260;SDS011;4667;42.726;23.252;2023-02-10T15:29:22;4.77;;;3.37;;
9260;SDS011;4667;42.726;23.252;2023-02-10T15:31:54;6.67;;;4.33;;
9260;SDS011;4667;42.726;23.252;2023-02-10T15:34:22;5.00;;;4.40;;
9260;SDS011;4667;42.726;23.252;2023-02-10T15:37:05;8.60;;;3.87;;
9260;SDS011;4667;42.726;23.252;2023-02-10T15:39:53;3.80;;;3.33;;
9260;SDS011;4667;42.726;23.252;2023-02-10T15:42:22;6.97;;;4.67;;
9260;SDS011;4667;42.726;23.252;2023-02-10T15:45:02;7.50;;;4.33;;
9260;SDS011;4667;42.726;23.252;2023-02-10T15:47:40;9.80;;;4.77;;
9260;SDS011;4667;42.726;23.252;2023-02-10T15:50:09;6.53;;;4.00;;
9260;SDS011;4667;42.726;23.252;2023-02-10T15:52:41;9.13;;;4.17;;
9260;SDS011;4667;42.726;23.252;2023-02-10T15:55:14;6.93;;;4.83;;
9260;SDS011;4667;42.726;23.252;2023-02-10T15:57:43;5.77;;;4.57;;
9260;SDS011;4667;42.726;23.252;2023-02-10T16:00:15;8.13;;;4.80;;
9260;SDS011;4667;42.726;23.252;2023-02-10T16:02:45;7.73;;;4.20;;
9260;SDS011;4667;42.726;23.252;2023-02-10T16:05:11;8.17;;;5.40;;
9260;SDS011;4667;42.726;23.252;2023-02-10T16:07:40;5.53;;;4.50;;
9260;SDS011;4667;42.726;23.252;2023-02-10T16:10:09;7.23;;;4.20;;
9260;SDS011;4667;42.726;23.252;2023-02-10T16:12:41;7.27;;;4.97;;
9260;SDS011;4667;42.726;23.252;2023-02-10T16:15:11;10.80;;;5.20;;
9260;SDS011;4667;42.726;23.252;2023-02-10T16:17:43;6.50;;;4.80;;
9260;SDS011;4667;42.726;23.252;2023-02-10T16:20:17;6.00;;;4.73;;
9260;SDS011;4667;42.726;23.252;2023-02-10T16:22:47;7.40;;;4.73;;
9260;SDS011;4667;42.726;23.252;2023-02-10T16:25:15;7.57;;;4.73;;
9260;SDS011;4667;42.726;23.252;2023-02-10T16:27:44;9.37;;;5.90;;
9260;SDS011;4667;42.726;23.252;2023-02-10T16:30:16;6.37;;;4.57;;
9260;SDS011;4667;42.726;23.252;2023-02-10T16:32:48;9.73;;;5.07;;
9260;SDS011;4667;42.726;23.252;2023-02-10T16:35:16;11.90;;;6.53;;
9260;SDS011;4667;42.726;23.252;2023-02-10T16:37:54;13.67;;;7.33;;
9260;SDS011;4667;42.726;23.252;2023-02-10T16:40:24;11.20;;;6.60;;
9260;SDS011;4667;42.726;23.252;2023-02-10T16:42:54;13.73;;;6.03;;
9260;SDS011;4667;42.726;23.252;2023-02-10T16:45:22;11.20;;;6.73;;
9260;SDS011;4667;42.726;23.252;2023-02-10T16:47:52;15.60;;;7.40;;
9260;SDS011;4667;42.726;23.252;2023-02-10T16:50:20;15.20;;;7.53;;
9260;SDS011;4667;42.726;23.252;2023-02-10T16:52:50;17.03;;;7.93;;
9260;SDS011;4667;42.726;23.252;2023-02-10T16:55:17;9.40;;;6.97;;
9260;SDS011;4667;42.726;23.252;2023-02-10T16:57:45;11.97;;;7.37;;
9260;SDS011;4667;42.726;23.252;2023-02-10T17:00:13;20.93;;;8.43;;
9260;SDS011;4667;42.726;23.252;2023-02-10T17:05:56;9.83;;;6.13;;
9260;SDS011;4667;42.726;23.252;2023-02-10T17:08:26;24.40;;;11.53;;
9260;SDS011;4667;42.726;23.252;2023-02-10T17:10:56;24.13;;;12.53;;
9260;SDS011;4667;42.726;23.252;2023-02-10T17:13:29;19.93;;;10.30;;
9260;SDS011;4667;42.726;23.252;2023-02-10T17:15:57;16.67;;;9.50;;
9260;SDS011;4667;42.726;23.252;2023-02-10T17:18:26;12.33;;;8.73;;
9260;SDS011;4667;42.726;23.252;2023-02-10T17:20:55;10.57;;;6.73;;
9260;SDS011;4667;42.726;23.252;2023-02-10T17:23:27;14.10;;;6.93;;
9260;SDS011;4667;42.726;23.252;2023-02-10T17:25:58;10.67;;;7.07;;
9260;SDS011;4667;42.726;23.252;2023-02-10T17:28:27;11.93;;;7.60;;
9260;SDS011;4667;42.726;23.252;2023-02-10T17:30:58;11.60;;;6.90;;
9260;SDS011;4667;42.726;23.252;2023-02-10T17:33:26;12.67;;;7.33;;
9260;SDS011;4667;42.726;23.252;2023-02-10T17:35:56;12.97;;;7.40;;
9260;SDS011;4667;42.726;23.252;2023-02-10T17:38:26;19.17;;;8.40;;
9260;SDS011;4667;42.726;23.252;2023-02-10T17:41:10;14.63;;;7.37;;
9260;SDS011;4667;42.726;23.252;2023-02-10T17:43:37;13.33;;;7.87;;
9260;SDS011;4667;42.726;23.252;2023-02-10T17:46:04;15.77;;;9.73;;
9260;SDS011;4667;42.726;23.252;2023-02-10T17:48:34;13.70;;;8.67;;
9260;SDS011;4667;42.726;23.252;2023-02-10T17:51:03;15.77;;;8.63;;
9260;SDS011;4667;42.726;23.252;2023-02-10T17:53:31;14.80;;;9.00;;
9260;SDS011;4667;42.726;23.252;2023-02-10T17:56:00;10.80;;;7.30;;
9260;SDS011;4667;42.726;23.252;2023-02-10T17:58:30;16.20;;;6.83;;
9260;SDS011;4667;42.726;23.252;2023-02-10T18:00:58;17.10;;;8.03;;
9260;SDS011;4667;42.726;23.252;2023-02-10T18:03:25;15.37;;;8.10;;
9260;SDS011;4667;42.726;23.252;2023-02-10T18:05:57;12.13;;;7.77;;
9260;SDS011;4667;42.726;23.252;2023-02-10T18:08:25;12.00;;;7.70;;
9260;SDS011;4667;42.726;23.252;2023-02-10T18:10:55;13.03;;;7.27;;
9260;SDS011;4667;42.726;23.252;2023-02-10T18:13:23;10.87;;;6.87;;
9260;SDS011;4667;42.726;23.252;2023-02-10T18:15:55;11.67;;;7.23;;
9260;SDS011;4667;42.726;23.252;2023-02-10T18:18:22;10.03;;;5.47;;
9260;SDS011;4667;42.726;23.252;2023-02-10T18:20:49;11.60;;;6.33;;
9260;SDS011;4667;42.726;23.252;2023-02-10T18:23:21;13.13;;;6.47;;
9260;SDS011;4667;42.726;23.252;2023-02-10T18:25:50;13.37;;;6.80;;
9260;SDS011;4667;42.726;23.252;2023-02-10T18:28:26;11.17;;;6.13;;
9260;SDS011;4667;42.726;23.252;2023-02-10T18:31:02;7.20;;;6.43;;
9260;SDS011;4667;42.726;23.252;2023-02-10T18:33:35;11.37;;;6.13;;
9260;SDS011;4667;42.726;23.252;2023-02-10T18:36:05;7.30;;;5.50;;
9260;SDS011;4667;42.726;23.252;2023-02-10T18:38:34;10.93;;;4.97;;
9260;SDS011;4667;42.726;23.252;2023-02-10T18:41:01;5.40;;;4.90;;
9260;SDS011;4667;42.726;23.252;2023-02-10T18:43:31;18.67;;;6.10;;
9260;SDS011;4667;42.726;23.252;2023-02-10T18:45:58;8.87;;;6.10;;
9260;SDS011;4667;42.726;23.252;2023-02-10T18:48:33;11.93;;;5.77;;
9260;SDS011;4667;42.726;23.252;2023-02-10T18:53:57;8.20;;;5.27;;
9260;SDS011;4667;42.726;23.252;2023-02-10T18:56:25;8.73;;;5.60;;
9260;SDS011;4667;42.726;23.252;2023-02-10T18:58:57;6.07;;;5.47;;
9260;SDS011;4667;42.726;23.252;2023-02-10T19:01:24;5.80;;;4.37;;
9260;SDS011;4667;42.726;23.252;2023-02-10T19:03:51;5.27;;;4.77;;
9260;SDS011;4667;42.726;23.252;2023-02-10T19:06:19;10.87;;;5.17;;
9260;SDS011;4667;42.726;23.252;2023-02-10T19:08:50;8.37;;;5.00;;
9260;SDS011;4667;42.726;23.252;2023-02-10T19:11:22;8.40;;;6.23;;
9260;SDS011;4667;42.726;23.252;2023-02-10T19:13:55;8.07;;;5.70;;
9260;SDS011;4667;42.726;23.252;2023-02-10T19:16:24;9.70;;;4.83;;
9260;SDS011;4667;42.726;23.252;2023-02-10T19:18:57;6.10;;;5.50;;
9260;SDS011;4667;42.726;23.252;2023-02-10T19:21:29;6.07;;;4.97;;
9260;SDS011;4667;42.726;23.252;2023-02-10T19:23:59;5.30;;;4.70;;
9260;SDS011;4667;42.726;23.252;2023-02-10T19:26:45;10.60;;;5.03;;
9260;SDS011;4667;42.726;23.252;2023-02-10T19:29:14;8.87;;;6.00;;
9260;SDS011;4667;42.726;23.252;2023-02-10T19:34:38;13.60;;;7.80;;
9260;SDS011;4667;42.726;23.252;2023-02-10T19:37:07;8.10;;;5.50;;
9260;SDS011;4667;42.726;23.252;2023-02-10T19:39:38;13.27;;;7.00;;
9260;SDS011;4667;42.726;23.252;2023-02-10T19:42:09;8.93;;;5.80;;
9260;SDS011;4667;42.726;23.252;2023-02-10T19:44:38;9.27;;;6.60;;
9260;SDS011;4667;42.726;23.252;2023-02-10T19:47:09;7.43;;;5.07;;
9260;SDS011;4667;42.726;23.252;2023-02-10T19:49:39;10.57;;;6.87;;
9260;SDS011;4667;42.726;23.252;2023-02-10T19:52:05;6.97;;;4.00;;
9260;SDS011;4667;42.726;23.252;2023-02-10T19:54:32;8.33;;;6.03;;
9260;SDS011;4667;42.726;23.252;2023-02-10T19:56:59;9.43;;;6.97;;
9260;SDS011;4667;42.726;23.252;2023-02-10T19:59:27;8.00;;;6.40;;
9260;SDS011;4667;42.726;23.252;2023-02-10T20:01:55;5.80;;;5.23;;
9260;SDS011;4667;42.726;23.252;2023-02-10T20:04:22;7.33;;;4.47;;
9260;SDS011;4667;42.726;23.252;2023-02-10T20:06:49;16.27;;;7.17;;
9260;SDS011;4667;42.726;23.252;2023-02-10T20:09:16;9.93;;;6.13;;
9260;SDS011;4667;42.726;23.252;2023-02-10T20:11:43;8.00;;;6.17;;
9260;SDS011;4667;42.726;23.252;2023-02-10T20:14:10;8.07;;;5.53;;
9260;SDS011;4667;42.726;23.252;2023-02-10T20:16:40;7.57;;;6.20;;
9260;SDS011;4667;42.726;23.252;2023-02-10T20:19:09;10.10;;;6.90;;
9260;SDS011;4667;42.726;23.252;2023-02-10T20:21:38;13.40;;;7.80;;
9260;SDS011;4667;42.726;23.252;2023-02-10T20:24:08;12.80;;;6.87;;
9260;SDS011;4667;42.726;23.252;2023-02-10T20:26:35;10.63;;;6.10;;
9260;SDS011;4667;42.726;23.252;2023-02-10T20:29:02;13.20;;;5.47;;
9260;SDS011;4667;42.726;23.252;2023-02-10T20:31:30;11.43;;;6.93;;
9260;SDS011;4667;42.726;23.252;2023-02-10T20:33:58;12.33;;;8.03;;
9260;SDS011;4667;42.726;23.252;2023-02-10T20:36:26;10.90;;;6.60;;
9260;SDS011;4667;42.726;23.252;2023-02-10T20:38:52;13.87;;;7.20;;
9260;SDS011;4667;42.726;23.252;2023-02-10T20:41:20;14.60;;;8.17;;
9260;SDS011;4667;42.726;23.252;2023-02-10T20:43:55;13.13;;;7.10;;
9260;SDS011;4667;42.726;23.252;2023-02-10T20:46:22;13.93;;;6.90;;
9260;SDS011;4667;42.726;23.252;2023-02-10T20:48:50;16.03;;;9.07;;
9260;SDS011;4667;42.726;23.252;2023-02-10T20:51:20;9.63;;;7.33;;
9260;SDS011;4667;42.726;23.252;2023-02-10T20:53:47;11.40;;;6.37;;
9260;SDS011;4667;42.726;23.252;2023-02-10T20:56:17;9.30;;;6.37;;
9260;SDS011;4667;42.726;23.252;2023-02-10T20:58:46;14.63;;;7.83;;
9260;SDS011;4667;42.726;23.252;2023-02-10T21:01:13;8.90;;;5.77;;
9260;SDS011;4667;42.726;23.252;2023-02-10T21:03:42;14.50;;;5.83;;
9260;SDS011;4667;42.726;23.252;2023-02-10T21:06:12;6.17;;;5.37;;
9260;SDS011;4667;42.726;23.252;2023-02-10T21:08:43;15.17;;;7.83;;
9260;SDS011;4667;42.726;23.252;2023-02-10T21:11:16;13.57;;;7.13;;
9260;SDS011;4667;42.726;23.252;2023-02-10T21:13:45;10.50;;;5.93;;
9260;SDS011;4667;42.726;23.252;2023-02-10T21:16:13;16.03;;;7.00;;
9260;SDS011;4667;42.726;23.252;2023-02-10T21:18:44;12.03;;;5.60;;
9260;SDS011;4667;42.726;23.252;2023-02-10T21:21:13;15.87;;;6.00;;
9260;SDS011;4667;42.726;23.252;2023-02-10T21:23:42;7.93;;;6.73;;
9260;SDS011;4667;42.726;23.252;2023-02-10T21:26:12;7.60;;;5.47;;
9260;SDS011;4667;42.726;23.252;2023-02-10T21:28:40;12.40;;;7.63;;
9260;SDS011;4667;42.726;23.252;2023-02-10T21:31:25;9.23;;;6.53;;
9260;SDS011;4667;42.726;23.252;2023-02-10T21:33:56;9.63;;;6.07;;
9260;SDS011;4667;42.726;23.252;2023-02-10T21:36:23;10.67;;;6.03;;
9260;SDS011;4667;42.726;23.252;2023-02-10T21:38:53;14.27;;;8.43;;
9260;SDS011;4667;42.726;23.252;2023-02-10T21:41:21;12.27;;;7.20;;
9260;SDS011;4667;42.726;23.252;2023-02-10T21:44:11;7.53;;;5.77;;
9260;SDS011;4667;42.726;23.252;2023-02-10T21:46:40;7.13;;;5.70;;
9260;SDS011;4667;42.726;23.252;2023-02-10T21:49:09;11.20;;;7.03;;
9260;SDS011;4667;42.726;23.252;2023-02-10T21:51:37;13.30;;;6.80;;
9260;SDS011;4667;42.726;23.252;2023-02-10T21:54:11;9.37;;;5.70;;
9260;SDS011;4667;42.726;23.252;2023-02-10T21:56:39;7.37;;;6.07;;
9260;SDS011;4667;42.726;23.252;2023-02-10T21:59:08;11.37;;;6.40;;
9260;SDS011;4667;42.726;23.252;2023-02-10T22:04:57;12.07;;;6.23;;
9260;SDS011;4667;42.726;23.252;2023-02-10T22:07:32;8.70;;;6.20;;
9260;SDS011;4667;42.726;23.252;2023-02-10T22:10:03;8.57;;;6.00;;
9260;SDS011;4667;42.726;23.252;2023-02-10T22:12:31;13.63;;;7.60;;
9260;SDS011;4667;42.726;23.252;2023-02-10T22:15:10;7.83;;;5.40;;
9260;SDS011;4667;42.726;23.252;2023-02-10T22:21:03;6.27;;;5.63;;
9260;SDS011;4667;42.726;23.252;2023-02-10T22:23:47;9.27;;;5.50;;
9260;SDS011;4667;42.726;23.252;2023-02-10T22:29:08;9.37;;;5.87;;
9260;SDS011;4667;42.726;23.252;2023-02-10T22:31:42;6.77;;;6.13;;
9260;SDS011;4667;42.726;23.252;2023-02-10T22:34:23;8.37;;;5.63;;
9260;SDS011;4667;42.726;23.252;2023-02-10T22:36:50;11.70;;;6.17;;
9260;SDS011;4667;42.726;23.252;2023-02-10T22:39:19;10.00;;;6.10;;
9260;SDS011;4667;42.726;23.252;2023-02-10T22:41:50;14.93;;;6.90;;
9260;SDS011;4667;42.726;23.252;2023-02-10T22:44:18;15.93;;;7.27;;
9260;SDS011;4667;42.726;23.252;2023-02-10T22:47:32;8.33;;;6.33;;
9260;SDS011;4667;42.726;23.252;2023-02-10T22:50:04;11.30;;;6.47;;
9260;SDS011;4667;42.726;23.252;2023-02-10T22:52:32;8.57;;;7.13;;
9260;SDS011;4667;42.726;23.252;2023-02-10T22:54:59;11.77;;;6.47;;
9260;SDS011;4667;42.726;23.252;2023-02-10T23:00:29;9.37;;;5.90;;
9260;SDS011;4667;42.726;23.252;2023-02-10T23:03:07;9.73;;;6.27;;
9260;SDS011;4667;42.726;23.252;2023-02-10T23:05:39;13.60;;;7.43;;
9260;SDS011;4667;42.726;23.252;2023-02-10T23:08:12;8.27;;;5.20;;
9260;SDS011;4667;42.726;23.252;2023-02-10T23:10:45;16.67;;;7.37;;
9260;SDS011;4667;42.726;23.252;2023-02-10T23:13:38;8.40;;;5.30;;